Time;durP1;ratioP1;P1;durP2;ratioP2;P2;SDS_P1;SDS_P2;PMS_P1;PMS_P2;Temp;Humidity;BMP_temperature;BMP_pressure;BME280_temperature;BME280_humidity;BME280_pressure;Samples;Min_cycle;Max_cycle;Signal;HPM_P1;HPM_P2
2023/08/12 00:02:00;;;;;;;6.27;4.80;;;25.40;66.20;;;28.13;43.90;101599.84;5032845;28;20226;-64
2023/08/12 00:04:28;;;;;;;6.17;5.57;;;25.40;66.60;;;28.10;43.96;101607.66;5033084;28;20198;-65
2023/08/12 00:06:56;;;;;;;7.20;5.83;;;25.30;66.70;;;28.06;44.12;101604.69;5032682;28;20190;-64
2023/08/12 00:09:23;;;;;;;6.97;6.10;;;25.30;67.70;;;28.04;44.77;101603.34;5032608;28;20252;-67
2023/08/12 00:11:50;;;;;;;7.47;5.20;;;25.20;68.40;;;28.03;44.78;101607.13;5032371;28;20282;-64
2023/08/12 00:14:17;;;;;;;6.33;5.17;;;25.20;68.70;;;28.00;44.83;101603.06;5032670;28;20245;-64
2023/08/12 00:16:44;;;;;;;8.33;5.17;;;25.20;68.80;;;27.96;45.04;101593.81;5036161;28;20248;-65
2023/08/12 00:19:11;;;;;;;8.77;5.47;;;25.20;69.30;;;27.95;44.89;101608.47;5036161;28;20194;-63
2023/08/12 00:21:40;;;;;;;6.50;4.67;;;25.10;69.30;;;27.90;45.20;101607.63;5036135;28;20199;-63
2023/08/12 00:24:07;;;;;;;10.03;4.50;;;25.10;69.50;;;27.85;45.30;101607.63;5036424;28;20594;-65
2023/08/12 00:26:34;;;;;;;7.37;4.70;;;25.10;69.90;;;27.79;45.39;101606.78;5036432;28;20268;-64
2023/08/12 00:29:01;;;;;;;7.87;4.97;;;25.10;70.20;;;27.75;45.52;101604.88;5035820;28;20723;-63
2023/08/12 00:31:28;;;;;;;8.50;5.67;;;25.00;70.50;;;27.69;46.18;101606.78;5035630;28;20218;-63
2023/08/12 00:33:55;;;;;;;7.40;5.10;;;24.90;71.30;;;27.65;46.46;101608.38;5035563;28;20195;-63
2023/08/12 00:36:22;;;;;;;7.00;5.00;;;24.90;71.90;;;27.62;46.49;101619.75;5036275;28;20191;-63
2023/08/12 00:38:50;;;;;;;6.23;4.60;;;24.90;72.30;;;27.59;46.81;101620.28;5035089;28;20195;-63
2023/08/12 00:41:17;;;;;;;6.87;4.80;;;24.80;72.70;;;27.58;46.80;101618.63;5035897;28;20285;-63
2023/08/12 00:43:44;;;;;;;7.20;5.03;;;24.80;73.00;;;27.56;47.10;101615.38;5035646;28;20286;-65
2023/08/12 00:46:13;;;;;;;8.50;5.50;;;24.80;73.70;;;27.54;47.11;101620.25;5035696;28;20583;-63
2023/08/12 00:48:40;;;;;;;6.23;4.80;;;24.70;74.00;;;27.53;47.67;101618.59;5035541;28;20218;-64
2023/08/12 00:51:07;;;;;;;11.63;6.40;;;24.70;74.40;;;27.51;47.83;101623.47;5035723;28;20264;-63
2023/08/12 00:53:35;;;;;;;6.27;4.90;;;24.70;74.90;;;27.47;48.01;101614.28;5035420;28;20234;-63
2023/08/12 00:56:04;;;;;;;9.13;4.90;;;24.60;75.20;;;27.44;48.00;101615.63;5035742;28;20199;-63
2023/08/12 00:58:31;;;;;;;7.97;5.03;;;24.60;75.60;;;27.42;48.21;101608.84;5035129;28;20218;-63
2023/08/12 01:00:59;;;;;;;7.00;4.57;;;24.60;76.10;;;27.43;48.49;101610.47;5035047;28;20317;-66
2023/08/12 01:03:26;;;;;;;5.77;4.07;;;24.60;76.40;;;27.42;48.26;101614.25;5034940;28;20197;-64
2023/08/12 01:05:54;;;;;;;7.77;5.17;;;24.60;76.30;;;27.45;48.35;101613.72;5035480;28;20202;-67
2023/08/12 01:08:27;;;;;;;8.17;4.97;;;24.60;76.20;;;27.45;48.41;101619.13;5035566;28;20191;-63
2023/08/12 01:11:09;;;;;;;7.90;5.00;;;24.60;76.40;;;27.39;48.68;101612.06;5035292;28;20252;-64
2023/08/12 01:13:46;;;;;;;5.57;4.07;;;24.60;76.50;;;27.38;48.38;101613.16;5015761;28;20672;-65
2023/08/12 01:16:18;;;;;;;7.93;4.27;;;24.60;76.50;;;27.41;48.37;101618.03;5015862;28;20195;-66
2023/08/12 01:18:49;;;;;;;5.63;4.37;;;24.60;76.60;;;27.42;48.71;101625.06;5015221;28;20179;-66
2023/08/12 01:21:21;;;;;;;5.43;3.90;;;24.60;77.00;;;27.42;48.54;101623.19;5017177;28;20219;-65
2023/08/12 01:23:49;;;;;;;6.30;4.70;;;24.60;76.60;;;27.43;48.46;101624.00;5034999;28;20258;-63
2023/08/12 01:26:16;;;;;;;7.93;5.00;;;24.60;76.90;;;27.44;48.83;101612.91;5035130;28;20696;-63
2023/08/12 01:28:43;;;;;;;8.27;4.83;;;24.60;76.90;;;27.48;48.84;101621.31;5034552;28;20201;-66
2023/08/12 01:31:24;;;;;;;6.83;5.07;;;24.60;77.20;;;27.45;48.68;101608.31;5034715;28;20214;-66
2023/08/12 01:34:11;;;;;;;8.87;5.27;;;24.60;77.60;;;27.42;48.75;101615.06;5034686;28;20225;-64
2023/08/12 01:36:44;;;;;;;8.30;5.10;;;24.60;78.00;;;27.41;49.05;101618.03;5020870;28;20187;-64
2023/08/12 01:39:13;;;;;;;7.17;4.73;;;24.50;78.00;;;27.39;49.44;101615.59;5034844;28;20660;-63
2023/08/12 01:41:40;;;;;;;6.63;4.83;;;24.50;78.10;;;27.39;49.44;101615.59;5034580;28;20218;-63
2023/08/12 01:44:07;;;;;;;8.80;5.57;;;24.50;78.30;;;27.41;49.19;101612.59;5034918;28;20249;-65
2023/08/12 01:46:35;;;;;;;10.83;5.50;;;24.50;78.40;;;27.40;48.97;101611.00;5034877;28;20218;-64
2023/08/12 01:49:03;;;;;;;8.60;5.70;;;24.50;78.40;;;27.38;49.20;101603.16;5034014;28;20314;-64
2023/08/12 01:51:30;;;;;;;8.70;6.00;;;24.50;78.50;;;27.37;49.16;101603.38;5034321;28;20210;-64
2023/08/12 01:53:57;;;;;;;7.87;5.47;;;24.50;78.70;;;27.33;49.29;101603.09;5034708;28;20214;-65
2023/08/12 01:56:26;;;;;;;8.97;5.77;;;24.40;78.60;;;27.31;49.47;101607.97;5033672;28;20509;-64
2023/08/12 01:58:53;;;;;;;7.13;5.57;;;24.50;78.90;;;27.29;49.74;101618.22;5034265;28;20198;-64
2023/08/12 02:01:20;;;;;;;6.47;4.93;;;24.40;79.10;;;27.27;49.64;101611.44;5034286;28;20254;-64
2023/08/12 02:03:47;;;;;;;7.60;5.27;;;24.40;79.10;;;27.19;50.17;101609.25;5034579;28;20194;-62
2023/08/12 02:06:14;;;;;;;7.80;5.60;;;24.40;79.30;;;27.12;50.34;101614.91;5035154;28;20558;-65
2023/08/12 02:08:41;;;;;;;7.73;5.77;;;24.30;80.60;;;27.06;50.42;101609.72;5034145;28;20277;-64
2023/08/12 02:11:08;;;;;;;7.53;6.07;;;24.30;80.20;;;27.02;50.66;101605.91;5034407;28;20237;-64
2023/08/12 02:13:36;;;;;;;12.87;6.70;;;24.20;80.50;;;27.00;50.90;101610.78;5034427;28;20277;-64
2023/08/12 02:16:04;;;;;;;8.80;7.07;;;24.20;81.20;;;26.97;51.25;101606.72;5034591;28;20331;-64
2023/08/12 02:18:31;;;;;;;15.37;6.53;;;24.10;81.50;;;26.97;51.57;101605.88;5034144;28;20558;-65
2023/08/12 02:20:58;;;;;;;9.17;5.77;;;24.10;81.90;;;26.97;51.88;101595.06;5034209;28;20214;-64
2023/08/12 02:23:25;;;;;;;8.20;5.87;;;24.10;82.00;;;26.98;51.79;101591.31;5034200;28;20624;-64
2023/08/12 02:25:54;;;;;;;7.03;6.20;;;24.10;82.30;;;27.01;51.64;101585.34;5034140;28;20218;-65
2023/08/12 02:28:21;;;;;;;8.30;5.70;;;24.10;82.40;;;27.03;51.86;101583.22;5034427;28;20226;-64
2023/08/12 02:30:49;;;;;;;7.07;5.40;;;24.10;82.50;;;27.06;51.27;101555.66;5034050;28;20214;-64
2023/08/12 02:33:16;;;;;;;10.37;6.93;;;24.10;82.40;;;27.07;51.41;101565.41;5033975;28;20202;-66
2023/08/12 02:35:43;;;;;;;10.07;6.90;;;24.10;82.50;;;27.09;51.66;101560.53;5025635;28;20266;-66
2023/08/12 02:38:10;;;;;;;12.93;7.13;;;24.10;82.50;;;27.09;51.66;101558.66;5027890;28;20229;-65
2023/08/12 02:40:37;;;;;;;9.40;6.53;;;24.10;82.50;;;27.04;51.66;101553.22;5033672;28;20272;-64
2023/08/12 02:43:04;;;;;;;8.93;7.53;;;24.10;82.40;;;26.99;51.82;101558.59;5033498;28;20301;-64
2023/08/12 02:45:32;;;;;;;10.43;6.80;;;24.10;82.60;;;26.98;51.79;101561.56;5033979;28;20285;-64
2023/08/12 02:48:00;;;;;;;10.27;6.60;;;24.10;82.90;;;26.98;51.63;101569.69;5033768;28;20195;-63
2023/08/12 02:50:27;;;;;;;10.27;6.63;;;24.00;83.10;;;26.95;51.71;101553.97;5033234;28;20206;-64
2023/08/12 02:52:55;;;;;;;9.10;7.13;;;24.00;83.20;;;26.94;52.49;101546.94;5033507;28;20194;-65
2023/08/12 02:55:22;;;;;;;9.53;6.40;;;24.00;83.50;;;26.94;52.80;101545.06;5033781;28;20193;-65
2023/08/12 02:57:48;;;;;;;10.53;6.63;;;24.00;84.10;;;26.96;52.57;101534.78;5033631;28;20265;-65
2023/08/12 03:00:17;;;;;;;12.73;7.90;;;24.00;84.30;;;26.96;52.45;101539.41;5033105;28;20308;-63
2023/08/12 03:02:44;;;;;;;9.60;7.57;;;24.00;84.60;;;26.92;52.44;101544.50;5033505;28;20198;-68
2023/08/12 03:05:13;;;;;;;11.10;7.77;;;24.00;84.50;;;26.85;52.90;101536.66;5033294;28;20277;-65
2023/08/12 03:07:40;;;;;;;11.93;7.40;;;24.00;84.90;;;26.81;53.17;101546.34;5033848;28;20597;-64
2023/08/12 03:10:08;;;;;;;11.97;7.77;;;23.90;85.20;;;26.80;53.20;101542.03;5033015;28;20293;-64
2023/08/12 03:12:35;;;;;;;8.87;7.47;;;23.90;85.50;;;26.78;53.64;101536.06;5033790;28;20224;-64
2023/08/12 03:15:03;;;;;;;14.37;8.53;;;23.90;85.90;;;26.79;53.67;101540.38;5033043;28;20248;-64
2023/08/12 03:17:30;;;;;;;14.80;8.83;;;23.90;86.20;;;26.80;54.04;101531.22;5033369;28;20190;-64
2023/08/12 03:19:59;;;;;;;8.63;7.00;;;23.80;86.40;;;26.79;53.66;101532.28;5032771;28;20293;-64
2023/08/12 03:22:27;;;;;;;9.90;7.60;;;23.90;86.70;;;26.83;54.26;101530.69;5033728;28;20210;-64
2023/08/12 03:24:54;;;;;;;11.93;8.57;;;23.80;86.60;;;26.83;54.27;101532.56;5033363;28;20305;-64
2023/08/12 03:27:21;;;;;;;16.53;8.03;;;23.90;86.80;;;26.84;53.86;101526.91;5033426;28;20285;-64
2023/08/12 03:29:48;;;;;;;9.70;7.37;;;23.90;86.70;;;26.81;53.63;101522.00;5032574;28;20389;-65
2023/08/12 03:32:15;;;;;;;10.07;7.37;;;23.90;86.40;;;26.79;53.63;101523.38;5033218;28;20686;-64
2023/08/12 03:34:42;;;;;;;10.37;6.83;;;23.90;86.40;;;26.77;54.28;101520.91;5033577;28;20663;-64
2023/08/12 03:37:09;;;;;;;10.80;6.60;;;23.90;86.20;;;26.78;54.29;101521.75;5033147;28;20273;-63
2023/08/12 03:39:38;;;;;;;13.67;8.57;;;23.90;86.20;;;26.78;53.89;101525.25;5032689;28;20214;-64
2023/08/12 03:42:06;;;;;;;8.93;7.53;;;23.90;86.60;;;26.77;53.94;101515.50;5032998;28;20615;-64
2023/08/12 03:44:33;;;;;;;9.47;8.47;;;23.90;86.70;;;26.75;54.21;101514.97;5032720;28;20222;-64
2023/08/12 03:47:00;;;;;;;13.20;8.70;;;23.90;86.90;;;26.73;54.73;101517.09;5033117;28;20219;-64
2023/08/12 03:49:27;;;;;;;13.17;8.33;;;23.80;86.90;;;26.70;54.79;101517.59;5034418;28;20293;-64
2023/08/12 03:51:54;;;;;;;11.83;8.63;;;23.80;87.10;;;26.67;54.81;101520.81;5036660;28;20198;-67
2023/08/12 03:54:21;;;;;;;9.20;8.07;;;23.90;87.90;;;26.67;55.29;101520.81;5036956;28;20187;-65
2023/08/12 03:56:49;;;;;;;10.03;8.83;;;23.80;88.10;;;26.69;55.18;101525.97;5036652;28;20707;-64
2023/08/12 03:59:16;;;;;;;9.27;8.30;;;23.80;88.60;;;26.71;54.90;101521.94;5036707;28;20222;-64
2023/08/12 04:01:43;;;;;;;11.37;7.67;;;23.80;88.80;;;26.72;54.87;101523.56;5036593;28;20221;-65
2023/08/12 04:04:10;;;;;;;11.53;8.97;;;23.80;88.80;;;26.74;55.58;101518.69;5037102;28;20678;-64
2023/08/12 04:06:40;;;;;;;14.43;9.37;;;23.80;89.10;;;26.76;55.54;101524.72;5036748;28;20184;-64
2023/08/12 04:09:07;;;;;;;11.57;9.00;;;23.80;89.30;;;26.77;55.68;101526.31;5036135;28;20218;-66
2023/08/12 04:11:34;;;;;;;10.73;7.50;;;23.80;89.10;;;26.79;55.40;101523.38;5036672;28;20274;-64
2023/08/12 04:14:03;;;;;;;12.73;9.63;;;23.80;88.80;;;26.81;55.24;101532.81;5036907;28;20205;-63
2023/08/12 04:16:30;;;;;;;12.17;9.87;;;23.80;89.00;;;26.81;55.24;101532.03;5036384;28;20291;-63
2023/08/12 04:18:57;;;;;;;10.50;8.47;;;23.80;88.80;;;26.82;54.75;101531.75;5035992;28;20218;-63
2023/08/12 04:21:24;;;;;;;15.23;9.70;;;23.80;88.80;;;26.81;55.08;101532.81;5036119;28;20293;-64
2023/08/12 04:23:51;;;;;;;11.77;8.20;;;23.80;89.10;;;26.83;55.13;101533.41;5036233;28;20225;-64
2023/08/12 04:26:18;;;;;;;13.63;10.70;;;23.80;89.10;;;26.81;55.40;101532.81;5036238;28;20190;-64
2023/08/12 04:28:45;;;;;;;13.37;9.40;;;23.90;89.60;;;26.79;55.79;101534.19;5035624;28;20190;-65
2023/08/12 04:31:13;;;;;;;12.13;10.03;;;23.90;89.60;;;26.75;56.13;101533.88;5036203;28;20301;-64
2023/08/12 04:33:40;;;;;;;12.13;7.83;;;23.80;89.60;;;26.70;55.46;101528.41;5035882;28;20213;-64
2023/08/12 04:36:07;;;;;;;12.73;10.37;;;23.80;89.40;;;26.66;55.74;101529.19;5036055;28;20577;-63
2023/08/12 04:38:35;;;;;;;15.17;9.60;;;23.80;89.70;;;26.59;55.65;101529.44;5035246;28;20637;-66
2023/08/12 04:41:02;;;;;;;17.03;11.10;;;23.80;89.60;;;26.54;56.44;101525.88;5035967;28;20250;-64
2023/08/12 04:43:29;;;;;;;11.07;7.87;;;23.70;89.70;;;26.48;56.23;101511.53;5035912;28;20203;-64
2023/08/12 04:45:56;;;;;;;11.67;9.57;;;23.70;89.50;;;26.47;55.96;101525.31;5035702;28;20727;-64
2023/08/12 04:48:24;;;;;;;11.73;9.07;;;23.70;89.70;;;26.46;56.40;101524.47;5035527;28;20195;-63
2023/08/12 04:50:51;;;;;;;12.50;9.53;;;23.60;89.80;;;26.47;56.19;101531.53;5035564;28;20297;-63
2023/08/12 04:53:19;;;;;;;13.70;10.70;;;23.60;90.00;;;26.45;56.49;101532.84;5035931;28;20222;-62
2023/08/12 04:55:51;;;;;;;13.07;9.00;;;23.60;90.00;;;26.40;56.09;101525.53;5035643;28;20236;-63
2023/08/12 04:58:18;;;;;;;11.83;9.60;;;23.60;90.00;;;26.36;56.55;101524.44;5035870;28;20257;-64
2023/08/12 05:00:45;;;;;;;13.57;10.83;;;23.60;90.10;;;26.30;57.06;101525.47;5034635;28;20206;-63
2023/08/12 05:03:12;;;;;;;14.03;11.93;;;23.60;90.20;;;26.23;57.43;101530.25;5035774;28;20281;-63
2023/08/12 05:05:40;;;;;;;10.77;9.63;;;23.50;90.20;;;26.18;57.44;101532.91;5035307;28;20248;-64
2023/08/12 05:08:07;;;;;;;12.87;10.37;;;23.50;90.30;;;26.12;57.35;101533.97;5035584;28;20197;-64
2023/08/12 05:10:34;;;;;;;14.77;11.80;;;23.40;90.50;;;26.06;57.77;101532.25;5035369;28;20233;-64
2023/08/12 05:13:02;;;;;;;10.13;9.23;;;23.40;90.70;;;26.02;57.88;101528.44;5035871;28;20285;-62
2023/08/12 05:15:29;;;;;;;13.23;10.50;;;23.40;90.90;;;26.01;57.96;101532.22;5035680;28;20269;-65
2023/08/12 05:17:56;;;;;;;12.57;11.27;;;23.30;90.90;;;25.99;58.38;101528.97;5035419;28;20217;-65
2023/08/12 05:20:23;;;;;;;13.37;11.60;;;23.30;91.10;;;25.97;58.25;101531.94;5035395;28;20694;-64
2023/08/12 05:22:51;;;;;;;11.67;9.47;;;23.20;91.20;;;25.96;58.08;101530.28;5035099;28;20214;-64
2023/08/12 05:25:18;;;;;;;10.20;9.17;;;23.20;91.20;;;25.96;57.96;101518.69;5035749;28;20219;-65
2023/08/12 05:27:45;;;;;;;11.73;9.00;;;23.20;91.20;;;25.96;58.62;101524.88;5035087;28;20210;-64
2023/08/12 05:30:13;;;;;;;13.33;9.50;;;23.20;91.30;;;25.99;58.14;101523.56;5035100;28;20301;-64
2023/08/12 05:32:40;;;;;;;15.07;13.23;;;23.20;91.40;;;25.99;59.06;101518.16;5035039;28;20560;-62
2023/08/12 05:35:09;;;;;;;11.63;10.17;;;23.20;91.60;;;25.96;58.79;101513.31;5035578;28;20195;-63
2023/08/12 05:37:36;;;;;;;11.90;10.37;;;23.10;91.40;;;25.95;58.78;101506.25;5035099;28;20195;-65
2023/08/12 05:40:08;;;;;;;17.83;12.67;;;23.10;91.40;;;25.94;58.74;101500.03;5034735;28;20242;-65
2023/08/12 05:42:36;;;;;;;11.10;9.57;;;23.10;91.50;;;25.95;58.18;101506.25;5034658;28;20687;-65
2023/08/12 05:45:04;;;;;;;15.30;12.70;;;23.10;91.50;;;25.94;59.01;101504.63;5034663;28;20233;-64
2023/08/12 05:47:34;;;;;;;12.80;11.40;;;23.10;91.60;;;25.91;58.41;101494.38;5034534;28;20206;-64
2023/08/12 05:50:02;;;;;;;15.87;10.87;;;23.10;91.60;;;25.87;58.55;101501.31;5034590;28;20215;-64
2023/08/12 05:52:29;;;;;;;16.27;12.13;;;23.10;91.60;;;25.85;59.32;101503.47;5034714;28;20214;-63
2023/08/12 05:54:56;;;;;;;12.40;10.20;;;23.00;91.70;;;25.82;59.37;101490.47;5034486;28;20190;-64
2023/08/12 05:57:24;;;;;;;10.70;9.60;;;23.00;91.70;;;25.83;58.74;101486.72;5034714;28;20722;-63
2023/08/12 05:59:55;;;;;;;10.00;8.90;;;23.00;91.90;;;25.82;59.26;101487.78;5034070;28;20297;-63
2023/08/12 06:02:22;;;;;;;12.40;9.30;;;23.00;92.00;;;25.81;59.66;101488.88;5034529;28;20249;-63
2023/08/12 06:04:49;;;;;;;11.20;8.80;;;23.00;92.00;;;25.79;59.33;101488.31;5034371;28;20202;-65
2023/08/12 06:07:16;;;;;;;7.53;6.83;;;23.00;92.10;;;25.82;59.20;101485.09;5034490;28;20277;-65
2023/08/12 06:09:43;;;;;;;9.63;8.70;;;23.00;92.10;;;25.86;59.16;101486.22;5033754;28;20613;-64
2023/08/12 06:12:10;;;;;;;9.20;8.03;;;23.00;92.20;;;25.84;59.06;101477.56;5033784;28;20705;-63
2023/08/12 06:14:39;;;;;;;9.63;8.40;;;23.00;92.10;;;25.79;59.31;101481.06;5034521;28;20208;-64
2023/08/12 06:17:06;;;;;;;8.80;7.90;;;23.00;92.20;;;25.76;59.77;101470.75;5034443;28;20550;-64
2023/08/12 06:19:34;;;;;;;7.10;6.40;;;23.00;92.20;;;25.78;59.94;101479.41;5033784;28;20276;-63
2023/08/12 06:22:01;;;;;;;6.47;5.77;;;22.90;92.20;;;25.82;59.79;101471.59;5034007;28;20731;-64
2023/08/12 06:24:28;;;;;;;10.87;8.27;;;22.90;92.30;;;25.86;59.76;101478.13;5033989;28;20678;-63
2023/08/12 06:26:55;;;;;;;12.77;9.70;;;23.00;92.50;;;25.86;59.98;101476.25;5033719;28;20277;-61
2023/08/12 06:29:22;;;;;;;9.13;7.83;;;23.00;92.70;;;25.86;59.85;101470.84;5031976;28;20580;-66
2023/08/12 06:31:52;;;;;;;10.10;8.87;;;23.00;92.80;;;25.90;59.84;101476.53;5015181;28;20191;-64
2023/08/12 06:34:19;;;;;;;10.47;9.00;;;23.00;92.70;;;25.94;60.25;101474.94;5014245;28;20266;-64
2023/08/12 06:36:46;;;;;;;11.13;8.70;;;23.00;92.70;;;25.96;60.12;101481.72;5030934;28;20715;-63
2023/08/12 06:39:13;;;;;;;9.80;8.53;;;23.10;92.70;;;25.97;59.88;101482.53;5033037;28;20237;-62
2023/08/12 06:41:40;;;;;;;11.10;9.27;;;23.10;92.60;;;25.97;59.73;101483.34;5033786;28;20224;-62
2023/08/12 06:44:07;;;;;;;7.00;6.33;;;23.10;92.70;;;26.00;60.06;101482.03;5033362;28;20662;-63
2023/08/12 06:46:34;;;;;;;9.63;8.27;;;23.10;92.70;;;26.03;59.82;101476.13;5033470;28;20233;-64
2023/08/12 06:49:03;;;;;;;12.83;8.73;;;23.10;92.80;;;26.02;60.12;101480.69;5033081;28;20193;-63
2023/08/12 06:51:30;;;;;;;9.13;8.27;;;23.10;92.80;;;25.99;60.14;101469.59;5033594;28;20191;-63
2023/08/12 06:53:57;;;;;;;9.63;8.70;;;23.10;92.70;;;25.97;60.41;101482.53;5033208;28;20182;-63
2023/08/12 06:56:24;;;;;;;9.37;8.43;;;23.10;92.80;;;25.95;59.93;101469.31;5033609;28;20194;-64
2023/08/12 06:58:51;;;;;;;9.40;8.40;;;23.10;92.80;;;25.94;60.55;101466.84;5032800;28;20200;-64
2023/08/12 07:01:18;;;;;;;10.73;8.43;;;23.10;92.90;;;25.94;60.39;101472.25;5033868;28;20218;-64
2023/08/12 07:03:45;;;;;;;11.30;9.90;;;23.10;93.00;;;25.94;59.95;101473.06;5033311;28;20203;-64
2023/08/12 07:06:13;;;;;;;11.00;8.13;;;23.10;93.00;;;25.94;60.35;101477.63;5033277;28;20685;-66
2023/08/12 07:08:40;;;;;;;11.30;9.37;;;23.10;93.00;;;25.93;60.18;101476.03;5032900;28;20194;-66
2023/08/12 07:11:07;;;;;;;11.10;9.97;;;23.10;93.00;;;25.94;60.06;101477.63;5032918;28;20225;-63
2023/08/12 07:13:34;;;;;;;11.40;10.00;;;23.10;93.00;;;25.90;60.55;101480.06;5033060;28;20675;-65
2023/08/12 07:16:01;;;;;;;10.80;8.90;;;23.10;93.00;;;25.86;60.82;101476.25;5033181;28;20286;-63
2023/08/12 07:18:29;;;;;;;10.43;9.43;;;23.10;93.00;;;25.85;60.49;101474.63;5032869;28;20195;-63
2023/08/12 07:20:58;;;;;;;9.83;8.90;;;23.10;93.10;;;25.89;60.82;101472.19;5033174;28;20216;-63
2023/08/12 07:23:27;;;;;;;12.37;11.17;;;23.10;93.20;;;25.92;60.23;101469.00;5033291;28;20681;-62
2023/08/12 07:25:54;;;;;;;14.43;10.40;;;23.10;93.30;;;25.94;60.28;101462.25;5037423;28;20257;-62
2023/08/12 07:28:21;;;;;;;13.27;11.43;;;23.10;93.20;;;25.99;60.57;101456.09;5036951;28;20198;-63
2023/08/12 07:30:48;;;;;;;11.53;9.03;;;23.10;93.30;;;26.02;60.77;101452.88;5036784;28;20217;-62
2023/08/12 07:33:15;;;;;;;11.33;10.03;;;23.10;93.20;;;26.05;60.00;101457.78;5037653;28;20190;-65
2023/08/12 07:35:43;;;;;;;13.83;11.17;;;23.10;93.20;;;26.08;60.15;101452.66;5040371;28;20237;-64
2023/08/12 07:38:09;;;;;;;11.43;9.80;;;23.20;93.10;;;26.09;60.35;101448.06;5040707;28;20281;-64
2023/08/12 07:40:38;;;;;;;9.40;8.50;;;23.20;93.10;;;26.13;59.86;101446.50;5039887;28;20211;-64
2023/08/12 07:43:08;;;;;;;12.27;10.47;;;23.20;93.20;;;26.16;60.35;101448.69;5036696;28;20310;-64
2023/08/12 07:45:35;;;;;;;13.03;11.63;;;23.30;93.20;;;26.17;59.58;101445.72;5036824;28;20361;-64
2023/08/12 07:48:03;;;;;;;13.03;9.37;;;23.30;93.10;;;26.22;59.49;101434.13;5036272;28;20297;-63
2023/08/12 07:50:30;;;;;;;10.97;9.97;;;23.30;93.00;;;26.30;59.43;101433.66;5036525;28;20210;-63
2023/08/12 07:52:57;;;;;;;12.57;11.30;;;23.30;93.00;;;26.35;59.21;101428.28;5036570;28;20221;-64
2023/08/12 07:55:24;;;;;;;15.27;12.30;;;23.30;92.90;;;26.39;59.90;101432.06;5036892;28;20269;-64
2023/08/12 07:57:54;;;;;;;16.33;13.10;;;23.40;93.10;;;26.43;59.51;101433.19;5036696;28;20195;-64
2023/08/12 08:00:22;;;;;;;12.43;10.77;;;23.40;93.00;;;26.43;59.25;101427.81;5035736;28;20618;-63
2023/08/12 08:02:49;;;;;;;11.97;10.50;;;23.50;92.90;;;26.43;59.35;101421.59;5036292;28;20226;-63
2023/08/12 08:05:16;;;;;;;11.43;10.30;;;23.50;92.80;;;26.40;59.34;101425.63;5036092;28;20666;-63
2023/08/12 08:07:43;;;;;;;11.57;10.40;;;23.50;92.70;;;26.39;59.43;101429.38;5036288;28;20187;-66
2023/08/12 08:10:10;;;;;;;11.27;10.10;;;23.50;92.80;;;26.40;59.74;101433.72;5035708;28;20551;-63
2023/08/12 08:12:37;;;;;;;11.90;10.67;;;23.50;92.90;;;26.43;59.01;101438.59;5036221;28;20277;-64
2023/08/12 08:15:06;;;;;;;12.67;11.43;;;23.50;92.80;;;26.45;59.17;101441.84;5035672;28;20198;-63
2023/08/12 08:17:34;;;;;;;15.73;11.50;;;23.50;92.80;;;26.43;59.22;101440.47;5035931;28;20201;-63
2023/08/12 08:20:07;;;;;;;12.90;11.13;;;23.50;92.80;;;26.42;59.47;101436.97;5035476;28;20210;-63
2023/08/12 08:22:34;;;;;;;14.87;11.47;;;23.50;92.70;;;26.40;59.63;101432.91;5035861;28;20225;-63
2023/08/12 08:25:01;;;;;;;13.20;11.80;;;23.50;92.70;;;26.42;59.32;101439.66;5035802;28;20195;-62
2023/08/12 08:27:28;;;;;;;12.80;11.43;;;23.50;93.00;;;26.47;59.47;101439.69;5035855;28;20201;-64
2023/08/12 08:29:55;;;;;;;15.97;12.57;;;23.50;92.90;;;26.49;59.21;101445.63;5034698;28;20214;-64
2023/08/12 08:32:23;;;;;;;12.40;10.80;;;23.50;92.90;;;26.49;59.61;101437.53;5036027;28;20190;-63
2023/08/12 08:34:50;;;;;;;14.07;10.90;;;23.60;93.00;;;26.47;59.44;101434.28;5035465;28;20201;-63
2023/08/12 08:37:17;;;;;;;10.03;8.80;;;23.60;92.90;;;26.46;59.23;101431.88;5034716;28;20273;-63
2023/08/12 08:39:44;;;;;;;11.93;10.73;;;23.60;92.80;;;26.49;59.72;101437.53;5035304;28;20230;-62
2023/08/12 08:42:14;;;;;;;12.13;10.23;;;23.60;93.00;;;26.52;59.70;101436.19;5035519;28;20213;-63
2023/08/12 08:44:42;;;;;;;12.37;11.10;;;23.60;93.00;;;26.54;59.45;101426.75;5035524;28;20670;-64
2023/08/12 08:47:10;;;;;;;10.87;9.03;;;23.60;93.00;;;26.57;59.54;101428.13;5035046;28;20210;-63
2023/08/12 08:49:41;;;;;;;13.47;11.43;;;23.70;93.00;;;26.58;59.80;101427.03;5035083;28;20301;-62
2023/08/12 08:52:08;;;;;;;12.70;11.27;;;23.70;92.90;;;26.52;59.68;101428.91;5035285;28;20190;-62
2023/08/12 08:54:36;;;;;;;11.83;10.70;;;23.70;92.80;;;26.47;59.55;101434.28;5035621;28;20195;-63
2023/08/12 08:57:05;;;;;;;15.87;11.70;;;23.70;92.90;;;26.45;60.00;101433.75;5035522;28;20194;-63
2023/08/12 08:59:36;;;;;;;14.27;10.83;;;23.70;93.00;;;26.46;59.97;101432.66;5035182;28;20781;-65
2023/08/12 09:02:10;;;;;;;14.57;11.60;;;23.70;93.10;;;26.47;59.73;101428.88;5034800;28;20221;-64
2023/08/12 09:04:39;;;;;;;15.77;12.47;;;23.60;93.00;;;26.45;60.25;101431.03;5034732;28;20197;-63
2023/08/12 09:07:06;;;;;;;10.50;8.60;;;23.70;93.10;;;26.47;60.36;101430.78;5034808;28;20719;-62
2023/08/12 09:09:35;;;;;;;13.73;9.60;;;23.60;93.10;;;26.47;59.68;101415.38;5034578;28;20211;-63
2023/08/12 09:12:06;;;;;;;12.30;11.10;;;23.70;93.10;;;26.46;60.02;101432.66;5034957;28;20281;-65
2023/08/12 09:14:34;;;;;;;13.13;11.83;;;23.70;93.20;;;26.43;59.88;101427.81;5034088;28;20644;-69
2023/08/12 09:17:02;;;;;;;13.37;11.93;;;23.60;93.20;;;26.38;60.58;101419.66;5053134;28;20197;-64
2023/08/12 09:19:29;;;;;;;16.80;12.20;;;23.60;93.20;;;26.37;60.03;101428.84;5035547;28;20218;-65
2023/08/12 09:21:58;;;;;;;13.43;11.47;;;23.60;93.20;;;26.36;60.75;101419.13;5034422;28;20194;-64
2023/08/12 09:24:26;;;;;;;13.27;11.77;;;23.60;93.30;;;26.37;60.80;101420.72;5049183;28;20805;-64
2023/08/12 09:26:55;;;;;;;10.57;9.43;;;23.60;93.40;;;26.42;60.15;101422.63;5054533;28;20190;-63
2023/08/12 09:29:23;;;;;;;15.43;13.80;;;23.60;93.40;;;26.44;60.22;101426.72;5050441;28;20221;-65
2023/08/12 09:31:50;;;;;;;15.13;12.97;;;23.60;93.30;;;26.47;60.50;101428.88;5054814;28;20284;-64
2023/08/12 09:34:18;;;;;;;12.33;11.13;;;23.70;93.30;;;26.50;60.26;101428.38;5052977;28;20221;-63
2023/08/12 09:36:46;;;;;;;11.00;9.90;;;23.70;93.30;;;26.54;59.77;101423.25;5034148;28;20203;-64
2023/08/12 09:39:14;;;;;;;14.37;12.87;;;23.70;93.20;;;26.52;60.05;101420.81;5022803;28;20224;-64
2023/08/12 09:41:43;;;;;;;14.90;11.77;;;23.70;93.10;;;26.52;59.68;101414.59;5046578;28;20252;-62
2023/08/12 09:44:10;;;;;;;12.53;11.23;;;23.70;93.10;;;26.51;59.80;101402.97;5045656;28;20240;-64
2023/08/12 09:46:38;;;;;;;13.03;10.47;;;23.70;93.10;;;26.51;59.77;101397.56;5042200;28;20201;-65
2023/08/12 09:49:07;;;;;;;13.97;11.67;;;23.70;93.10;;;26.51;59.54;101400.28;5053981;28;20218;-65
2023/08/12 09:51:36;;;;;;;12.73;11.23;;;23.70;93.00;;;26.51;60.00;101396.75;5039356;28;20218;-65
2023/08/12 09:54:04;;;;;;;13.17;11.20;;;23.70;93.00;;;26.48;60.38;101376.47;5034702;28;20740;-64
2023/08/12 09:56:37;;;;;;;14.47;11.90;;;23.70;93.10;;;26.45;60.28;101377.03;5033045;28;20186;-64
2023/08/12 09:59:09;;;;;;;14.17;12.23;;;23.70;93.40;;;26.43;60.85;101378.38;5034318;28;20729;-64
2023/08/12 10:01:38;;;;;;;29.73;26.73;;;23.70;93.40;;;26.38;60.72;101372.94;5034480;28;20285;-63
2023/08/12 10:04:13;;;;;;;17.77;15.13;;;23.70;93.50;;;26.30;61.39;101363.47;5034701;28;20344;-64
2023/08/12 10:06:40;;;;;;;15.13;13.73;;;23.60;93.70;;;26.28;61.61;101364.78;5033643;28;20259;-64
2023/08/12 10:09:09;;;;;;;14.13;12.73;;;23.60;93.80;;;26.23;62.15;101352.09;5033950;28;20203;-64